Coronel Enrique Soto Cano Air Base
MHSC : now visible

Airfield :











YOU CAN JOIN US ON...

 
LOGIN :

Register | Disclaimer

   EN    FR    IT 

 









Legend :    VFR   Marginal VFR   IFR   Intensive IFR   Very Intensive IFR
Visi :
Ceiling :
>= 8 km
>= 3000ft
5 to 8 km
1000 to 3000 ft
1500m to 5 km
500 to 1000 ft
800 to 1500m
200 to 500 ft
< 800m
< 200 ft
Symbols :   Thunderstorms  Fog  Heavy snow  Heavy precipitations  Wind > 20 kt






- Airport Elevation : 2061 ft
- IATA code : XPL


MHSC - Coronel Enrique Soto Cano Air Base

CURRENT METAR :
  • 101458Z 33003KT 9999 FEW060 24/18 A3007 RMK AO2A SLPNO PWINO PNO TSNO VISNO RWY17 $

EXPIRED METARs :
  • 101358Z AUTO 22003KT 9999 CLR M M RMK AO2 SLPNO PWINO PNO TSNO VISNO RWY17 $
  • 101258Z 33002KT 9999 FEW008 FEW060 18/17 A3005 RMK AO2A SLPNO

TAF TAF MHSC
Valid from the 10 at 13:00 until the 11 at 19:00 UTC


101305Z 1013/1119 36009KT 9999 FEW008 FEW060 QNH3004INS
BECMG 1015/1016 02010G18KT 9999 SCT060 QNH2994INS
BECMG 1100/1101 02006KT 9999 BKN060 QNH2998INS
BECMG 1109/1110 35004KT 8000 BR BKN020 QNH3002INS
BECMG 1112/1113 36009KT 9999 NSW FEW010 FEW030 QNH3005INS
BECMG 1115/1116 02010G18KT 9999 SCT060 QNH3002INS TX28/1022Z TN17/1111Z



MET'MAP, your aeronautical weather chart ! - Copyright ORBIFLY December 2007 - Disclaimer

ORBIFLY MET'MAP TEAM :

Programming & Development : Alexandra Zaïnal
Concept & original design : Baudouin d'Aumeries
Assistance for programming : Marc-Olivier Méhu
Technical & hardware support : Manuel Goepfert

Contact : metmap@orbifly.com




SOURCES & CREDITS :

   NOAA       Earth
Advisory